Time;durP1;ratioP1;P1;durP2;ratioP2;P2;SDS_P1;SDS_P2;PMS_P1;PMS_P2;Temp;Humidity;BMP_temperature;BMP_pressure;BME280_temperature;BME280_humidity;BME280_pressure;Samples;Min_cycle;Max_cycle;Signal;HPM_P1;HPM_P2
2023/03/21 00:02:15;;;;;;;;;;;;;;;27.22;38.16;94392.25;4934578;28;7278;-56
2023/03/21 00:04:51;;;;;;;;;;;;;;;27.22;38.39;94398.50;4963409;28;7046;-56
2023/03/21 00:07:17;;;;;;;;;;;;;;;27.22;38.36;94395.00;4927436;28;9013;-56
2023/03/21 00:09:44;;;;;;;;;;;;;;;27.23;38.35;94388.94;4939199;28;7199;-56
2023/03/21 00:12:21;;;;;;;;;;;;;;;27.23;38.22;94386.19;4954433;28;8942;-56
2023/03/21 00:15:04;;;;;;;;;;;;;;;27.22;38.19;94393.00;5002199;28;7037;-56
2023/03/21 00:17:38;;;;;;;;;;;;;;;27.23;37.80;94388.94;5012556;28;7046;-56
2023/03/21 00:20:07;;;;;;;;;;;;;;;27.22;38.61;94387.47;5001733;28;7298;-56
2023/03/21 00:22:41;;;;;;;;;;;;;;;27.21;38.21;94374.91;5009225;28;7033;-57
2023/03/21 00:25:09;;;;;;;;;;;;;;;27.17;38.53;94363.44;5002109;28;7101;-56
2023/03/21 00:27:35;;;;;;;;;;;;;;;27.19;38.25;94369.16;5005325;28;9081;-56
2023/03/21 00:30:12;;;;;;;;;;;;;;;27.19;38.39;94371.19;5000883;28;7801;-56
2023/03/21 00:32:38;;;;;;;;;;;;;;;27.21;38.32;94372.16;5024977;28;7049;-56
2023/03/21 00:35:13;;;;;;;;;;;;;;;27.20;38.38;94373.44;5012754;28;7205;-56
2023/03/21 00:37:39;;;;;;;;;;;;;;;27.21;38.16;94368.66;5013296;28;7112;-56
2023/03/21 00:40:24;;;;;;;;;;;;;;;27.18;37.93;94364.19;5012203;28;7269;-56
2023/03/21 00:42:52;;;;;;;;;;;;;;;27.19;38.56;94360.88;5012406;28;9096;-56
2023/03/21 00:45:20;;;;;;;;;;;;;;;27.20;38.20;94350.59;5010393;28;7037;-56
2023/03/21 00:47:48;;;;;;;;;;;;;;;27.20;38.45;94356.13;5021236;28;6921;-56
2023/03/21 00:50:39;;;;;;;;;;;;;;;27.20;38.18;94351.34;5008564;28;7042;-56
2023/03/21 00:53:13;;;;;;;;;;;;;;;27.19;38.19;94349.84;4994740;28;9295;-56
2023/03/21 00:56:11;;;;;;;;;;;;;;;27.20;38.57;94350.59;5002753;28;6874;-56
2023/03/21 00:58:48;;;;;;;;;;;;;;;27.18;38.19;94348.38;4980069;28;8752;-56
2023/03/21 01:01:17;;;;;;;;;;;;;;;27.16;38.35;94344.63;4989816;28;7193;-56
2023/03/21 01:03:49;;;;;;;;;;;;;;;27.17;38.32;94352.38;4975322;28;8727;-56
2023/03/21 01:06:21;;;;;;;;;;;;;;;27.17;38.71;94352.38;4993883;28;7257;-56
2023/03/21 01:08:57;;;;;;;;;;;;;;;27.19;38.19;94343.56;4980350;28;9110;-56
2023/03/21 01:11:54;;;;;;;;;;;;;;;27.17;38.39;94346.84;4972055;28;7670;-56
2023/03/21 01:14:31;;;;;;;;;;;;;;;27.16;38.95;94344.63;4970867;28;8492;-56
2023/03/21 01:17:07;;;;;;;;;;;;;;;27.16;38.20;94341.88;4955196;28;7314;-56
2023/03/21 01:19:33;;;;;;;;;;;;;;;27.16;38.02;94344.63;4952625;28;7267;-57
2023/03/21 01:22:08;;;;;;;;;;;;;;;27.17;38.59;94341.34;4954816;28;9168;-56
2023/03/21 01:24:53;;;;;;;;;;;;;;;27.18;38.39;94340.09;4970150;28;7118;-56
2023/03/21 01:27:25;;;;;;;;;;;;;;;27.16;38.86;94345.38;4962518;28;7514;-56
2023/03/21 01:29:51;;;;;;;;;;;;;;;27.17;38.09;94338.56;4955474;28;7024;-56
2023/03/21 01:32:31;;;;;;;;;;;;;;;27.17;38.26;94335.81;4955723;28;7053;-56
2023/03/21 01:35:06;;;;;;;;;;;;;;;27.15;38.26;94334.84;4954974;28;7036;-56
2023/03/21 01:38:08;;;;;;;;;;;;;;;27.16;38.42;94333.59;4971528;28;7069;-56
2023/03/21 01:40:45;;;;;;;;;;;;;;;27.15;38.26;94334.84;4902416;29;7218;-56
2023/03/21 01:43:27;;;;;;;;;;;;;;;27.15;38.20;94332.84;4911455;29;7330;-57
2023/03/21 01:46:08;;;;;;;;;;;;;;;27.15;37.92;94330.06;4912295;29;9704;-56
2023/03/21 01:48:41;;;;;;;;;;;;;;;27.13;38.18;94329.09;4918871;29;7043;-56
2023/03/21 01:51:10;;;;;;;;;;;;;;;27.12;38.59;94322.81;4919486;29;9346;-56
2023/03/21 01:53:46;;;;;;;;;;;;;;;27.14;38.27;94322.31;4950534;28;7746;-56
2023/03/21 01:56:28;;;;;;;;;;;;;;;27.16;37.95;94322.53;4945774;28;7252;-57
2023/03/21 01:59:03;;;;;;;;;;;;;;;27.14;38.11;94320.31;4936724;28;9074;-57
2023/03/21 02:01:33;;;;;;;;;;;;;;;27.14;38.12;94319.56;4957240;28;7157;-55
2023/03/21 02:04:11;;;;;;;;;;;;;;;27.15;38.03;94319.03;4937020;29;9342;-56
2023/03/21 02:06:55;;;;;;;;;;;;;;;27.16;38.83;94326.06;4952300;28;7067;-56
2023/03/21 02:09:39;;;;;;;;;;;;;;;27.14;38.35;94319.56;4951628;28;7256;-56
2023/03/21 02:12:11;;;;;;;;;;;;;;;27.11;38.30;94315.81;4926216;29;7448;-56
2023/03/21 02:15:07;;;;;;;;;;;;;;;27.13;38.22;94315.28;4933765;28;7293;-56
2023/03/21 02:17:39;;;;;;;;;;;;;;;27.11;38.29;94315.81;4951025;28;9444;-56
2023/03/21 02:20:32;;;;;;;;;;;;;;;27.10;38.20;94306.03;4951683;28;9439;-56
2023/03/21 02:23:23;;;;;;;;;;;;;;;27.10;38.37;94313.59;4950904;28;8518;-56
2023/03/21 02:25:52;;;;;;;;;;;;;;;27.10;38.28;94300.50;4959699;28;7160;-56
2023/03/21 02:28:56;;;;;;;;;;;;;;;27.10;38.25;94308.78;4984413;28;7089;-56
2023/03/21 02:31:41;;;;;;;;;;;;;;;27.10;38.45;94297.75;4957464;28;7133;-56
2023/03/21 02:34:16;;;;;;;;;;;;;;;27.09;37.92;94301.03;4963422;28;9200;-56
2023/03/21 02:36:49;;;;;;;;;;;;;;;27.08;38.17;94288.53;4975036;28;7000;-56
2023/03/21 02:39:39;;;;;;;;;;;;;;;27.07;38.47;94292.53;4972849;28;7274;-56
2023/03/21 02:42:22;;;;;;;;;;;;;;;27.08;38.67;94294.78;4954966;28;9045;-56
2023/03/21 02:45:11;;;;;;;;;;;;;;;27.08;38.33;94294.78;4971896;28;7256;-56
2023/03/21 02:48:15;;;;;;;;;;;;;;;27.07;38.45;94295.31;4961008;28;7392;-56
2023/03/21 02:50:46;;;;;;;;;;;;;;;27.08;38.70;94292.00;4951661;28;8937;-56
2023/03/21 02:53:19;;;;;;;;;;;;;;;27.07;38.36;94290.53;4954584;28;7243;-56
2023/03/21 02:55:47;;;;;;;;;;;;;;;27.06;38.63;94291.78;5020417;28;9410;-56
2023/03/21 02:58:22;;;;;;;;;;;;;;;27.03;38.69;94290.09;5000447;28;7016;-56
2023/03/21 03:00:55;;;;;;;;;;;;;;;27.04;38.04;94286.03;5011641;28;7315;-56
2023/03/21 03:03:33;;;;;;;;;;;;;;;27.03;37.89;94292.84;5013004;28;9105;-56
2023/03/21 03:06:18;;;;;;;;;;;;;;;27.02;38.10;94288.59;5012174;28;7300;-56
2023/03/21 03:09:27;;;;;;;;;;;;;;;27.02;38.58;94291.34;5017798;28;7317;-56
2023/03/21 03:12:18;;;;;;;;;;;;;;;27.01;38.36;94289.88;5029907;28;9169;-56
2023/03/21 03:15:16;;;;;;;;;;;;;;;27.03;38.38;94290.09;5019529;28;7272;-56
2023/03/21 03:18:26;;;;;;;;;;;;;;;27.03;38.70;94286.56;5012278;28;7266;-56
2023/03/21 03:21:21;;;;;;;;;;;;;;;27.02;38.69;94288.59;5011910;28;7253;-56
2023/03/21 03:27:25;;;;;;;;;;;;;;;26.97;38.44;94288.69;5005876;28;7144;-56
2023/03/21 03:29:54;;;;;;;;;;;;;;;26.97;38.35;94283.88;5018341;28;8808;-56
2023/03/21 03:32:34;;;;;;;;;;;;;;;26.97;38.05;94283.16;5026820;28;7136;-56
2023/03/21 03:35:05;;;;;;;;;;;;;;;26.94;38.48;94268.38;4997715;28;9453;-56
2023/03/21 03:37:37;;;;;;;;;;;;;;;26.96;38.39;94279.63;5003354;28;7941;-56
2023/03/21 03:40:15;;;;;;;;;;;;;;;26.95;39.00;94277.41;5013629;28;7047;-56
2023/03/21 03:42:52;;;;;;;;;;;;;;;26.95;38.55;94282.94;5005431;28;9176;-56
2023/03/21 03:45:32;;;;;;;;;;;;;;;26.96;38.71;94276.88;5000948;28;8761;-56
2023/03/21 03:48:08;;;;;;;;;;;;;;;26.98;39.08;94281.88;5003042;28;9346;-56
2023/03/21 03:51:07;;;;;;;;;;;;;;;26.97;38.66;94283.16;5020204;28;7047;-56
2023/03/21 03:53:59;;;;;;;;;;;;;;;26.96;38.56;94287.91;4976164;28;7267;-56
2023/03/21 03:56:37;;;;;;;;;;;;;;;26.93;38.87;94280.69;4982932;28;7019;-56
2023/03/21 03:59:24;;;;;;;;;;;;;;;26.94;38.76;94276.66;4967252;28;8240;-56
2023/03/21 04:01:50;;;;;;;;;;;;;;;26.95;38.69;94280.91;4990386;28;7280;-56
2023/03/21 04:04:52;;;;;;;;;;;;;;;26.94;38.75;94279.41;4997199;28;9277;-57
2023/03/21 04:07:41;;;;;;;;;;;;;;;26.94;38.38;94270.38;4974714;28;7124;-56
2023/03/21 04:10:12;;;;;;;;;;;;;;;26.93;38.59;94272.41;4975359;28;8981;-56
2023/03/21 04:12:58;;;;;;;;;;;;;;;26.94;38.66;94275.91;4973612;28;8478;-56
2023/03/21 04:15:35;;;;;;;;;;;;;;;26.93;38.93;94272.41;4974132;28;9124;-56
2023/03/21 04:18:03;;;;;;;;;;;;;;;26.90;38.27;94274.19;4989193;28;9003;-56
2023/03/21 04:20:44;;;;;;;;;;;;;;;26.91;38.48;94274.94;4970969;28;7286;-56
2023/03/21 04:23:12;;;;;;;;;;;;;;;26.91;38.66;94272.16;4964846;28;9074;-56
2023/03/21 04:25:39;;;;;;;;;;;;;;;26.92;38.21;94268.16;4972992;28;9083;-56
2023/03/21 04:28:06;;;;;;;;;;;;;;;26.92;38.76;94273.69;4990068;28;9468;-56
2023/03/21 04:30:34;;;;;;;;;;;;;;;26.92;38.69;94272.94;4994496;28;7369;-56
2023/03/21 04:33:08;;;;;;;;;;;;;;;26.90;38.89;94273.47;5012358;28;8976;-57
2023/03/21 04:35:47;;;;;;;;;;;;;;;26.89;39.04;94263.66;5005229;28;7107;-56
2023/03/21 04:38:14;;;;;;;;;;;;;;;26.92;38.78;94272.94;5013472;28;9063;-56
2023/03/21 04:41:02;;;;;;;;;;;;;;;26.91;38.37;94272.16;5010462;28;9080;-56
2023/03/21 04:43:31;;;;;;;;;;;;;;;26.90;38.69;94273.47;5012389;28;7055;-56
2023/03/21 04:46:01;;;;;;;;;;;;;;;26.90;38.67;94276.22;4996402;28;9335;-56
2023/03/21 04:48:30;;;;;;;;;;;;;;;26.90;38.79;94274.19;5021182;28;7497;-56
2023/03/21 04:50:58;;;;;;;;;;;;;;;26.91;38.31;94269.41;5018202;28;9041;-56
2023/03/21 04:53:24;;;;;;;;;;;;;;;26.90;38.66;94274.19;5006947;28;7234;-56
2023/03/21 04:55:53;;;;;;;;;;;;;;;26.87;38.76;94266.97;5000356;28;9214;-56
2023/03/21 04:58:21;;;;;;;;;;;;;;;26.91;38.99;94274.94;5006867;28;7310;-56
2023/03/21 05:00:56;;;;;;;;;;;;;;;26.87;38.56;94268.97;5017417;28;9058;-56
2023/03/21 05:03:33;;;;;;;;;;;;;;;26.89;38.65;94274.72;5008977;28;7025;-56
2023/03/21 05:06:07;;;;;;;;;;;;;;;26.88;38.58;94271.19;5013356;28;9033;-57
2023/03/21 05:08:37;;;;;;;;;;;;;;;26.88;38.41;94276.00;5002538;28;7626;-56
2023/03/21 05:11:04;;;;;;;;;;;;;;;26.88;39.11;94271.19;5037826;28;8728;-56
2023/03/21 05:13:33;;;;;;;;;;;;;;;26.89;38.34;94271.94;5009878;28;7219;-56
2023/03/21 05:15:59;;;;;;;;;;;;;;;26.90;38.55;94278.97;5009147;28;7261;-56
2023/03/21 05:18:29;;;;;;;;;;;;;;;26.87;38.29;94272.47;5025243;28;7080;-56
2023/03/21 05:20:56;;;;;;;;;;;;;;;26.88;38.71;94273.97;5014929;28;7278;-56
2023/03/21 05:23:30;;;;;;;;;;;;;;;26.89;38.98;94272.69;5032497;28;7036;-56
2023/03/21 05:25:56;;;;;;;;;;;;;;;26.88;38.55;94262.19;5009875;28;7312;-56
2023/03/21 05:28:30;;;;;;;;;;;;;;;26.88;38.46;94271.19;5008220;28;7279;-56
2023/03/21 05:30:56;;;;;;;;;;;;;;;26.90;38.54;94259.66;4998397;28;7190;-56
2023/03/21 05:33:23;;;;;;;;;;;;;;;26.92;39.00;94266.13;5024894;28;9177;-56
2023/03/21 05:35:52;;;;;;;;;;;;;;;26.94;38.45;94257.34;5006119;28;7017;-56
2023/03/21 05:38:18;;;;;;;;;;;;;;;26.93;38.25;94261.34;5015677;28;9097;-56
2023/03/21 05:40:50;;;;;;;;;;;;;;;26.95;38.08;94261.56;5012395;28;9307;-56
2023/03/21 05:43:16;;;;;;;;;;;;;;;26.98;37.95;94262.56;5005635;28;7152;-56
2023/03/21 05:45:43;;;;;;;;;;;;;;;26.98;38.13;94257.78;5019163;28;9062;-56
2023/03/21 05:48:09;;;;;;;;;;;;;;;26.98;38.33;94259.78;5033011;28;7064;-56
2023/03/21 05:50:38;;;;;;;;;;;;;;;26.97;38.16;94259.03;5007772;28;7259;-56
2023/03/21 05:53:04;;;;;;;;;;;;;;;26.96;38.19;94260.31;5003035;28;7084;-56
2023/03/21 05:55:31;;;;;;;;;;;;;;;26.94;38.41;94260.09;5002591;28;9128;-56
2023/03/21 05:58:04;;;;;;;;;;;;;;;26.92;38.89;94270.91;5042046;28;9280;-56
2023/03/21 06:00:33;;;;;;;;;;;;;;;26.89;38.32;94256.16;5012311;28;9088;-56
2023/03/21 06:02:59;;;;;;;;;;;;;;;26.93;37.84;94264.13;5044613;28;9156;-56
2023/03/21 06:05:27;;;;;;;;;;;;;;;26.91;38.37;94269.41;5013904;28;7038;-56
2023/03/21 06:07:54;;;;;;;;;;;;;;;26.89;38.99;94266.44;5009313;28;7627;-56
2023/03/21 06:10:22;;;;;;;;;;;;;;;26.90;38.87;94267.94;5037713;28;7040;-56
2023/03/21 06:12:53;;;;;;;;;;;;;;;26.93;38.79;94272.41;5007671;28;6985;-56
2023/03/21 06:15:19;;;;;;;;;;;;;;;26.99;38.89;94275.09;4994686;28;7637;-56
2023/03/21 06:17:47;;;;;;;;;;;;;;;26.99;39.19;94275.81;5015885;28;7093;-56
2023/03/21 06:20:14;;;;;;;;;;;;;;;27.00;38.90;94269.03;5009473;28;8970;-56
2023/03/21 06:22:42;;;;;;;;;;;;;;;26.96;38.96;94267.84;5014290;28;7192;-56
2023/03/21 06:25:10;;;;;;;;;;;;;;;26.95;38.99;94269.84;5026033;28;7040;-56
2023/03/21 06:27:39;;;;;;;;;;;;;;;26.94;38.94;94265.63;5021626;28;7108;-56
2023/03/21 06:30:06;;;;;;;;;;;;;;;26.97;38.97;94267.31;5024372;28;7234;-56
2023/03/21 06:32:31;;;;;;;;;;;;;;;26.95;38.66;94264.34;5041349;28;8194;-56
2023/03/21 06:34:57;;;;;;;;;;;;;;;26.96;38.67;94276.13;5023350;28;9064;-56
2023/03/21 06:37:27;;;;;;;;;;;;;;;26.95;38.23;94277.41;5003362;28;7258;-56
2023/03/21 06:39:55;;;;;;;;;;;;;;;26.98;38.22;94277.09;5027932;28;7022;-57
2023/03/21 06:42:24;;;;;;;;;;;;;;;27.01;38.25;94276.06;5028109;28;8783;-56
2023/03/21 06:44:51;;;;;;;;;;;;;;;27.03;38.01;94279.03;5001265;28;7058;-56
2023/03/21 06:47:18;;;;;;;;;;;;;;;27.00;38.07;94276.56;4995299;28;8939;-56
2023/03/21 06:50:37;;;;;;;;;;;;;;;27.04;37.92;94286.03;5007941;28;7016;-56
2023/03/21 06:53:05;;;;;;;;;;;;;;;27.02;37.71;94291.34;4957741;28;9054;-56
2023/03/21 06:55:56;;;;;;;;;;;;;;;27.03;37.88;94287.34;4958807;28;8979;-56
2023/03/21 06:58:52;;;;;;;;;;;;;;;27.03;38.33;94292.84;4952125;28;9443;-56
2023/03/21 07:01:18;;;;;;;;;;;;;;;27.01;38.12;94294.63;4912945;29;9291;-56
2023/03/21 07:03:46;;;;;;;;;;;;;;;27.02;37.73;94296.13;4914868;29;9263;-56
2023/03/21 07:06:12;;;;;;;;;;;;;;;27.02;38.69;94294.09;4916437;29;8907;-56
2023/03/21 07:08:43;;;;;;;;;;;;;;;27.03;37.94;94292.84;4916167;29;7042;-56
2023/03/21 07:11:42;;;;;;;;;;;;;;;27.03;38.05;94298.38;4900561;29;7248;-56
2023/03/21 07:14:10;;;;;;;;;;;;;;;27.09;38.00;94290.00;4870944;29;9050;-56
2023/03/21 07:17:05;;;;;;;;;;;;;;;27.09;37.88;94301.03;4876512;29;7059;-56
2023/03/21 07:19:34;;;;;;;;;;;;;;;27.06;37.28;94297.31;4854910;29;7302;-57
2023/03/21 07:22:12;;;;;;;;;;;;;;;27.05;37.15;94287.56;4856481;29;7548;-57
2023/03/21 07:24:52;;;;;;;;;;;;;;;27.04;37.65;94291.56;4860341;29;7494;-56
2023/03/21 07:27:18;;;;;;;;;;;;;;;27.05;37.31;94290.31;4860242;29;8825;-56
2023/03/21 07:29:46;;;;;;;;;;;;;;;27.05;36.62;94293.06;4877126;29;9456;-56
2023/03/21 07:32:12;;;;;;;;;;;;;;;27.02;37.30;94288.59;4888557;29;7035;-56
2023/03/21 07:34:41;;;;;;;;;;;;;;;27.00;37.20;94291.13;4879211;29;9410;-56
2023/03/21 07:37:07;;;;;;;;;;;;;;;26.99;37.26;94289.63;4895512;29;9101;-57
2023/03/21 07:39:33;;;;;;;;;;;;;;;26.96;37.36;94282.41;4928826;28;7254;-57
2023/03/21 07:42:00;;;;;;;;;;;;;;;26.96;37.80;94276.88;4956251;28;7192;-56
2023/03/21 07:44:29;;;;;;;;;;;;;;;26.96;37.37;94281.66;4931436;28;7125;-56
2023/03/21 07:46:59;;;;;;;;;;;;;;;26.97;37.40;94283.88;4941965;28;9158;-56
2023/03/21 07:49:50;;;;;;;;;;;;;;;26.97;37.32;94281.13;4948609;28;7299;-56
2023/03/21 07:52:30;;;;;;;;;;;;;;;26.96;37.11;94282.41;5008173;28;7700;-57
2023/03/21 07:55:05;;;;;;;;;;;;;;;26.96;37.56;94274.13;5005983;28;9521;-56
2023/03/21 07:57:40;;;;;;;;;;;;;;;26.92;38.03;94281.97;4994757;28;7067;-56
2023/03/21 08:00:37;;;;;;;;;;;;;;;26.94;37.61;94282.19;5013109;28;8797;-56
2023/03/21 08:03:18;;;;;;;;;;;;;;;26.91;37.40;94280.44;4959234;28;9069;-56
2023/03/21 08:05:45;;;;;;;;;;;;;;;26.91;37.72;94272.16;4954045;28;7389;-56
2023/03/21 08:08:11;;;;;;;;;;;;;;;26.90;37.56;94268.66;4961946;28;7448;-56
2023/03/21 08:10:44;;;;;;;;;;;;;;;26.90;37.75;94265.91;4961408;28;7278;-56
2023/03/21 08:13:10;;;;;;;;;;;;;;;26.95;37.76;94272.63;4953910;28;7259;-56
2023/03/21 08:15:36;;;;;;;;;;;;;;;26.98;38.05;94277.09;4946279;28;7279;-56
2023/03/21 08:18:02;;;;;;;;;;;;;;;26.95;37.58;94275.38;4945520;28;7498;-56
2023/03/21 08:20:37;;;;;;;;;;;;;;;26.96;37.62;94276.88;4955280;28;7810;-57
2023/03/21 08:23:04;;;;;;;;;;;;;;;26.97;38.16;94272.84;4952731;28;7258;-56
2023/03/21 08:25:39;;;;;;;;;;;;;;;27.00;37.28;94276.56;4971456;28;7042;-56
2023/03/21 08:28:06;;;;;;;;;;;;;;;26.95;36.76;94278.13;4969159;28;7244;-56
2023/03/21 08:30:41;;;;;;;;;;;;;;;26.96;37.33;94279.63;4944391;28;7090;-56
2023/03/21 08:33:12;;;;;;;;;;;;;;;26.92;36.71;94271.63;4967709;28;7255;-56
2023/03/21 08:35:55;;;;;;;;;;;;;;;26.98;37.41;94276.34;4984645;28;7291;-56
2023/03/21 08:38:21;;;;;;;;;;;;;;;26.94;37.53;94273.91;4980350;28;7329;-56
2023/03/21 08:40:55;;;;;;;;;;;;;;;26.97;37.61;94283.88;5028157;28;9056;-56
2023/03/21 08:43:40;;;;;;;;;;;;;;;26.94;37.54;94270.38;5018303;28;7261;-56
2023/03/21 08:46:25;;;;;;;;;;;;;;;26.98;37.61;94279.09;5010633;28;6859;-56
2023/03/21 08:48:53;;;;;;;;;;;;;;;26.96;37.58;94270.59;4999096;28;7291;-57
2023/03/21 08:51:21;;;;;;;;;;;;;;;26.97;37.56;94277.63;5028181;28;8712;-56
2023/03/21 08:54:24;;;;;;;;;;;;;;;26.97;37.32;94275.59;5012613;28;7159;-56
2023/03/21 08:56:58;;;;;;;;;;;;;;;26.96;37.80;94271.34;5012283;28;7254;-56
2023/03/21 08:59:57;;;;;;;;;;;;;;;26.97;37.56;94277.63;5003156;28;7226;-56
2023/03/21 09:02:28;;;;;;;;;;;;;;;26.96;38.09;94276.88;4955189;28;7159;-57
2023/03/21 09:04:57;;;;;;;;;;;;;;;26.95;38.13;94275.38;4955260;28;9053;-56
2023/03/21 09:07:40;;;;;;;;;;;;;;;26.96;37.43;94273.38;4973151;28;7024;-56
2023/03/21 09:10:16;;;;;;;;;;;;;;;26.97;38.12;94267.31;4962629;28;7516;-56
2023/03/21 09:12:44;;;;;;;;;;;;;;;26.99;38.08;94270.28;4950615;28;7130;-56
2023/03/21 09:15:12;;;;;;;;;;;;;;;26.97;37.80;94266.59;4954825;28;9203;-56
2023/03/21 09:17:42;;;;;;;;;;;;;;;27.01;38.08;94267.03;4955838;28;9228;-56
2023/03/21 09:20:19;;;;;;;;;;;;;;;27.03;38.01;94270.00;4960996;28;7459;-56
2023/03/21 09:22:50;;;;;;;;;;;;;;;27.03;38.48;94264.50;4987521;28;7023;-56
2023/03/21 09:25:19;;;;;;;;;;;;;;;27.03;37.96;94270.00;4973025;28;7309;-56
2023/03/21 09:27:50;;;;;;;;;;;;;;;27.03;38.41;94276.28;4967999;28;7293;-56
2023/03/21 09:30:19;;;;;;;;;;;;;;;27.05;38.11;94273.00;4969623;28;7342;-57
2023/03/21 09:32:49;;;;;;;;;;;;;;;27.06;38.28;94280.75;4954180;28;9027;-57
2023/03/21 09:35:19;;;;;;;;;;;;;;;27.10;38.11;94281.19;4963879;28;7207;-57
2023/03/21 09:37:47;;;;;;;;;;;;;;;27.09;38.10;94281.72;4971067;28;7280;-57
2023/03/21 09:40:30;;;;;;;;;;;;;;;27.06;37.87;94285.50;5027305;28;7220;-56
2023/03/21 09:43:40;;;;;;;;;;;;;;;27.08;38.10;94283.72;5027358;28;7169;-57
2023/03/21 09:46:22;;;;;;;;;;;;;;;27.07;38.06;94282.25;5014529;28;9020;-57
2023/03/21 09:49:06;;;;;;;;;;;;;;;27.06;38.09;94280.75;5008561;28;9370;-57
2023/03/21 09:51:40;;;;;;;;;;;;;;;27.04;37.75;94285.28;5009824;28;7268;-56
2023/03/21 09:54:27;;;;;;;;;;;;;;;27.05;38.21;94284.78;5012163;28;9120;-56
2023/03/21 09:57:00;;;;;;;;;;;;;;;27.06;38.29;94278.00;5021119;28;7182;-56
2023/03/21 09:59:36;;;;;;;;;;;;;;;27.07;38.32;94285.00;5014319;28;7013;-56
2023/03/21 10:02:31;;;;;;;;;;;;;;;27.08;38.20;94289.25;5025673;28;7039;-56
2023/03/21 10:04:59;;;;;;;;;;;;;;;27.09;38.70;94285.22;5003735;28;7290;-56
2023/03/21 10:07:34;;;;;;;;;;;;;;;27.10;38.04;94281.19;5032863;28;9081;-56
2023/03/21 10:10:03;;;;;;;;;;;;;;;27.11;38.29;94282.69;5002785;28;8938;-56
2023/03/21 10:12:35;;;;;;;;;;;;;;;27.12;38.50;94275.16;5016284;28;7313;-56
2023/03/21 10:15:13;;;;;;;;;;;;;;;27.12;38.49;94272.41;5017339;28;9865;-56
2023/03/21 10:18:04;;;;;;;;;;;;;;;27.15;38.40;94283.13;5003780;28;7614;-56
2023/03/21 10:20:37;;;;;;;;;;;;;;;27.15;38.41;94277.63;5008411;28;7258;-56
2023/03/21 10:23:11;;;;;;;;;;;;;;;27.16;38.32;94281.88;5007840;28;7290;-56
2023/03/21 10:25:43;;;;;;;;;;;;;;;27.17;38.75;94275.06;5005154;28;7038;-56
2023/03/21 10:28:17;;;;;;;;;;;;;;;27.17;38.43;94274.31;5007465;28;6970;-56
2023/03/21 10:31:14;;;;;;;;;;;;;;;27.17;38.46;94268.78;5006791;28;8803;-56
2023/03/21 10:33:49;;;;;;;;;;;;;;;27.18;38.51;94273.06;4977633;28;9814;-56
2023/03/21 10:36:24;;;;;;;;;;;;;;;27.17;38.94;94274.31;4977635;28;9783;-56
2023/03/21 10:39:01;;;;;;;;;;;;;;;27.16;38.82;94281.88;4987935;28;9096;-57
2023/03/21 10:41:27;;;;;;;;;;;;;;;27.18;38.58;94270.31;4970110;28;7266;-56
2023/03/21 10:44:10;;;;;;;;;;;;;;;27.19;38.80;94278.06;4980939;28;7266;-56
2023/03/21 10:46:36;;;;;;;;;;;;;;;27.19;38.29;94272.53;4989480;28;9288;-56
2023/03/21 10:49:17;;;;;;;;;;;;;;;27.15;38.25;94266.56;4984028;28;9548;-56
2023/03/21 10:51:49;;;;;;;;;;;;;;;27.20;38.38;94273.28;4978533;28;9545;-56
2023/03/21 10:54:20;;;;;;;;;;;;;;;27.19;38.33;94271.78;4998372;28;7443;-56
2023/03/21 10:57:10;;;;;;;;;;;;;;;27.20;38.01;94284.31;4978708;28;7344;-56
2023/03/21 10:59:52;;;;;;;;;;;;;;;27.21;38.47;94275.50;4957092;28;7303;-57
2023/03/21 11:02:30;;;;;;;;;;;;;;;27.21;38.67;94267.22;4976165;28;7338;-56
2023/03/21 11:05:17;;;;;;;;;;;;;;;27.22;38.36;94268.72;4998503;28;7254;-56
2023/03/21 11:08:05;;;;;;;;;;;;;;;27.22;38.38;94265.22;4992328;28;9048;-56
2023/03/21 11:10:36;;;;;;;;;;;;;;;27.20;38.61;94268.50;4993855;28;9472;-56
2023/03/21 11:13:16;;;;;;;;;;;;;;;27.22;38.44;94271.50;5013263;28;7261;-56
2023/03/21 11:16:02;;;;;;;;;;;;;;;27.21;38.63;94267.22;5044760;28;8826;-56
2023/03/21 11:18:41;;;;;;;;;;;;;;;27.23;38.65;94264.69;5010645;28;7911;-56
2023/03/21 11:21:20;;;;;;;;;;;;;;;27.23;38.53;94261.91;5007886;28;9440;-57
2023/03/21 11:23:50;;;;;;;;;;;;;;;27.22;39.00;94259.69;5029838;28;7300;-56
2023/03/21 11:26:36;;;;;;;;;;;;;;;27.25;38.59;94258.66;5013369;28;7002;-56
2023/03/21 11:29:35;;;;;;;;;;;;;;;27.27;39.20;94256.09;5013953;28;9056;-56
2023/03/21 11:32:33;;;;;;;;;;;;;;;27.27;38.59;94251.34;5027830;28;7050;-56
2023/03/21 11:35:03;;;;;;;;;;;;;;;27.29;38.78;94242.53;5016911;28;8746;-56
2023/03/21 11:37:43;;;;;;;;;;;;;;;27.29;38.47;94237.00;5033719;28;9029;-56
2023/03/21 11:40:22;;;;;;;;;;;;;;;27.32;38.88;94239.44;5010571;28;9059;-56
2023/03/21 11:43:00;;;;;;;;;;;;;;;27.31;39.26;94235.22;5023094;28;7273;-56
2023/03/21 11:45:34;;;;;;;;;;;;;;;27.31;38.59;94229.69;5013285;28;7017;-56
2023/03/21 11:48:15;;;;;;;;;;;;;;;27.32;38.86;94224.88;5029348;28;9018;-56
2023/03/21 11:50:46;;;;;;;;;;;;;;;27.33;38.42;94224.38;5041913;28;9258;-57
2023/03/21 11:53:40;;;;;;;;;;;;;;;27.35;38.44;94218.31;5033518;28;8179;-56
2023/03/21 11:56:15;;;;;;;;;;;;;;;27.34;38.83;94217.56;5010912;28;7257;-57
2023/03/21 11:59:10;;;;;;;;;;;;;;;27.35;38.56;94210.81;5023597;28;7280;-56
2023/03/21 12:01:56;;;;;;;;;;;;;;;27.34;38.77;94200.28;5016182;28;7502;-56
2023/03/21 12:04:38;;;;;;;;;;;;;;;27.39;38.80;94202.22;5019077;28;7403;-56
2023/03/21 12:07:20;;;;;;;;;;;;;;;27.39;38.91;94194.69;5023496;28;7084;-57
2023/03/21 12:09:55;;;;;;;;;;;;;;;27.41;38.70;94194.88;5016266;28;9341;-56
2023/03/21 12:12:44;;;;;;;;;;;;;;;27.45;38.25;94195.31;5008473;28;7211;-57
2023/03/21 12:15:53;;;;;;;;;;;;;;;27.42;38.58;94188.09;4998915;28;8501;-56
2023/03/21 12:18:55;;;;;;;;;;;;;;;27.45;38.72;94189.03;5026677;28;7469;-56
2023/03/21 12:22:00;;;;;;;;;;;;;;;27.43;38.82;94180.53;5003416;28;7245;-56
2023/03/21 12:25:05;;;;;;;;;;;;;;;27.40;38.78;94179.59;5012025;28;9366;-57
2023/03/21 12:28:09;;;;;;;;;;;;;;;27.41;38.88;94172.78;5012300;28;7325;-56
2023/03/21 12:30:58;;;;;;;;;;;;;;;27.40;38.68;94167.81;5009337;28;7023;-56
2023/03/21 12:34:10;;;;;;;;;;;;;;;27.40;38.91;94168.56;5004930;28;7302;-57
2023/03/21 12:36:43;;;;;;;;;;;;;;;27.41;39.02;94172.78;5007551;28;9085;-56
2023/03/21 12:39:20;;;;;;;;;;;;;;;27.42;38.96;94168.78;5028449;28;9302;-56
2023/03/21 12:42:08;;;;;;;;;;;;;;;27.41;38.91;94164.50;5025036;28;7266;-56
2023/03/21 12:45:00;;;;;;;;;;;;;;;27.42;39.00;94168.78;5019490;28;7251;-56
2023/03/21 12:47:32;;;;;;;;;;;;;;;27.42;38.96;94171.53;5003484;28;9106;-56
2023/03/21 12:50:35;;;;;;;;;;;;;;;27.44;39.10;94166.22;5023797;28;7046;-56
2023/03/21 12:53:24;;;;;;;;;;;;;;;27.42;39.30;94154.97;5021809;28;9248;-56
2023/03/21 12:56:32;;;;;;;;;;;;;;;27.44;38.95;94157.94;5020404;28;7051;-56
2023/03/21 12:59:30;;;;;;;;;;;;;;;27.47;39.10;94156.88;5009540;28;7289;-56
2023/03/21 13:02:22;;;;;;;;;;;;;;;27.48;39.15;94149.31;5011942;28;9335;-56
2023/03/21 13:05:27;;;;;;;;;;;;;;;27.49;39.25;94146.03;5001196;28;7229;-56
2023/03/21 13:08:27;;;;;;;;;;;;;;;27.50;39.51;94152.31;5011454;28;8774;-57
2023/03/21 13:11:04;;;;;;;;;;;;;;;27.52;39.11;94141.47;4945655;28;9388;-56
2023/03/21 13:14:06;;;;;;;;;;;;;;;27.50;39.29;94144.75;4945426;28;9142;-56
2023/03/21 13:17:01;;;;;;;;;;;;;;;27.55;39.05;94137.66;4952945;28;8978;-56
2023/03/21 13:19:47;;;;;;;;;;;;;;;27.54;39.29;94136.91;4936427;28;9240;-56
2023/03/21 13:22:27;;;;;;;;;;;;;;;27.53;39.27;94124.34;4945343;28;8884;-57
2023/03/21 13:25:17;;;;;;;;;;;;;;;27.56;38.73;94128.81;4937267;29;7058;-56
2023/03/21 13:28:18;;;;;;;;;;;;;;;27.55;39.05;94124.59;4937009;28;7271;-56
2023/03/21 13:31:23;;;;;;;;;;;;;;;27.57;39.24;94121.28;4870038;29;9178;-56
2023/03/21 13:34:02;;;;;;;;;;;;;;;27.57;39.43;94124.81;4881658;29;7043;-56
2023/03/21 13:36:36;;;;;;;;;;;;;;;27.61;39.05;94127.25;4876165;29;7716;-56
2023/03/21 13:39:36;;;;;;;;;;;;;;;27.64;39.25;94123.44;4885174;29;9027;-56
2023/03/21 13:42:11;;;;;;;;;;;;;;;27.66;39.14;94120.88;4875827;29;7309;-57
2023/03/21 13:44:59;;;;;;;;;;;;;;;27.69;38.73;94111.50;4877051;29;7057;-56
2023/03/21 13:47:51;;;;;;;;;;;;;;;27.72;39.10;94112.47;4888975;29;7237;-56
2023/03/21 13:50:17;;;;;;;;;;;;;;;27.72;38.76;94107.69;4878064;29;9410;-56
2023/03/21 13:53:14;;;;;;;;;;;;;;;27.73;38.86;94097.38;4895593;29;7080;-56
2023/03/21 13:55:45;;;;;;;;;;;;;;;27.72;38.79;94104.19;4929939;29;8737;-56
2023/03/21 13:58:49;;;;;;;;;;;;;;;27.72;38.76;94098.66;4931697;29;7219;-56